Time;durP1;ratioP1;P1;durP2;ratioP2;P2;SDS_P1;SDS_P2;PMS_P1;PMS_P2;Temp;Humidity;BMP_temperature;BMP_pressure;BME280_temperature;BME280_humidity;BME280_pressure;Samples;Min_cycle;Max_cycle;Signal;HPM_P1;HPM_P2
2024/01/20 00:00:13;;;;;;;38.40;18.75;;;;;-0.20;99499.00;;;;5055778;28;20098;-70
2024/01/20 00:02:40;;;;;;;40.00;17.23;;;;;-0.10;99494.00;;;;5057015;28;20044;-71
2024/01/20 00:05:07;;;;;;;30.83;17.42;;;;;-0.10;99498.00;;;;5053528;28;20044;-71
2024/01/20 00:07:34;;;;;;;33.03;18.23;;;;;-0.10;99507.00;;;;5053726;28;20159;-70
2024/01/20 00:10:01;;;;;;;31.80;17.85;;;;;-0.10;99517.00;;;;5053637;28;20048;-71
2024/01/20 00:12:30;;;;;;;36.28;19.83;;;;;-0.10;99524.00;;;;5055054;28;20068;-71
2024/01/20 00:14:57;;;;;;;36.28;18.65;;;;;-0.20;99528.00;;;;5058957;28;20078;-71
2024/01/20 00:17:23;;;;;;;34.90;18.10;;;;;-0.30;99520.00;;;;5060114;28;20098;-71
2024/01/20 00:19:54;;;;;;;35.85;18.45;;;;;-0.30;99532.00;;;;5063956;28;20068;-70
2024/01/20 00:22:22;;;;;;;34.13;17.83;;;;;-0.40;99529.00;;;;5058925;28;20095;-71
2024/01/20 00:24:49;;;;;;;39.40;18.30;;;;;-0.40;99534.00;;;;5056686;28;20040;-71
2024/01/20 00:27:18;;;;;;;34.55;15.43;;;;;-0.50;99528.00;;;;5059036;28;20048;-71
2024/01/20 00:29:46;;;;;;;33.53;17.75;;;;;-0.60;99531.00;;;;5055593;28;20131;-72
2024/01/20 00:32:13;;;;;;;37.20;16.92;;;;;-0.60;99532.00;;;;5053382;28;20065;-71
2024/01/20 00:34:40;;;;;;;39.25;18.33;;;;;-0.60;99534.00;;;;5051766;28;20052;-70
2024/01/20 00:37:25;;;;;;;38.05;17.50;;;;;-0.60;99527.00;;;;5054020;28;20120;-70
2024/01/20 00:39:52;;;;;;;54.47;17.60;;;;;-0.60;99531.00;;;;5053543;28;20036;-71
2024/01/20 00:42:18;;;;;;;39.25;17.00;;;;;-0.70;99533.00;;;;5053200;28;20049;-70
2024/01/20 00:44:45;;;;;;;43.05;16.30;;;;;-0.70;99520.00;;;;5054636;28;20473;-70
2024/01/20 00:47:12;;;;;;;33.25;16.73;;;;;-0.70;99517.00;;;;5053239;28;20049;-70
2024/01/20 00:49:38;;;;;;;32.38;14.65;;;;;-0.70;99514.00;;;;5053941;28;20049;-71
2024/01/20 00:52:05;;;;;;;25.75;12.30;;;;;-0.80;99520.00;;;;5052813;28;20149;-71
2024/01/20 00:54:32;;;;;;;36.38;13.13;;;;;-1.00;99520.00;;;;5052301;28;20051;-70
2024/01/20 00:56:59;;;;;;;28.80;14.23;;;;;-1.10;99514.00;;;;5035382;28;20139;-72
2024/01/20 00:59:25;;;;;;;30.83;14.73;;;;;-1.00;99524.00;;;;5053177;28;20129;-71
2024/01/20 01:01:52;;;;;;;28.50;13.27;;;;;-1.00;99521.00;;;;5053244;28;20068;-71
2024/01/20 01:04:18;;;;;;;21.58;11.63;;;;;-1.00;99516.00;;;;5052272;28;20049;-70
2024/01/20 01:06:45;;;;;;;26.20;14.02;;;;;-1.10;99522.00;;;;5053164;28;20064;-70
2024/01/20 01:09:11;;;;;;;22.23;11.45;;;;;-1.10;99522.00;;;;5052985;28;20239;-71
2024/01/20 01:11:38;;;;;;;19.52;10.45;;;;;-1.20;99523.00;;;;5051168;28;20555;-70
2024/01/20 01:14:05;;;;;;;23.98;11.02;;;;;-1.40;99511.00;;;;5050656;28;20437;-70
2024/01/20 01:16:31;;;;;;;21.25;10.98;;;;;-1.50;99525.00;;;;5052618;28;20056;-70
2024/01/20 01:18:58;;;;;;;25.67;12.23;;;;;-1.60;99535.00;;;;5035263;28;20055;-70
2024/01/20 01:21:25;;;;;;;22.63;11.90;;;;;-1.60;99543.00;;;;5054160;28;20091;-70
2024/01/20 01:23:51;;;;;;;23.13;11.93;;;;;-1.50;99542.00;;;;5050466;28;20138;-70
2024/01/20 01:26:19;;;;;;;19.25;11.38;;;;;-1.50;99539.00;;;;5051263;28;20056;-70
2024/01/20 01:28:46;;;;;;;25.10;13.40;;;;;-1.40;99536.00;;;;5034899;28;20049;-68
2024/01/20 01:31:12;;;;;;;26.30;13.73;;;;;-1.40;99541.00;;;;5053065;28;20524;-71
2024/01/20 01:33:39;;;;;;;28.58;13.95;;;;;-1.30;99548.00;;;;5052941;28;20072;-72
2024/01/20 01:36:06;;;;;;;33.05;13.13;;;;;-1.30;99554.00;;;;5051534;28;20047;-71
2024/01/20 01:38:33;;;;;;;26.00;13.43;;;;;-1.50;99553.00;;;;5051761;28;20082;-71
2024/01/20 01:41:00;;;;;;;34.47;15.52;;;;;-1.50;99552.00;;;;5053123;28;20045;-71
2024/01/20 01:43:27;;;;;;;31.05;14.55;;;;;-1.50;99550.00;;;;5050763;28;20037;-71
2024/01/20 01:45:53;;;;;;;57.78;15.73;;;;;-1.40;99545.00;;;;5052447;28;20045;-72
2024/01/20 01:48:21;;;;;;;32.50;15.10;;;;;-1.40;99547.00;;;;5055244;28;20095;-71
2024/01/20 01:50:49;;;;;;;37.63;14.35;;;;;-1.30;99555.00;;;;5058161;28;20417;-71
2024/01/20 01:53:15;;;;;;;31.27;16.00;;;;;-1.50;99539.00;;;;5057655;28;20047;-71
2024/01/20 01:55:46;;;;;;;32.45;15.73;;;;;-1.60;99537.00;;;;5058133;28;20053;-71
2024/01/20 01:58:13;;;;;;;31.98;16.67;;;;;-1.60;99536.00;;;;5059482;28;20083;-70
2024/01/20 02:00:41;;;;;;;34.92;14.98;;;;;-1.70;99531.00;;;;5059366;28;20519;-71
2024/01/20 02:03:09;;;;;;;38.08;16.73;;;;;-1.90;99533.00;;;;5057544;28;20418;-71
2024/01/20 02:05:36;;;;;;;34.00;16.95;;;;;-2.00;99528.00;;;;5059161;28;20056;-72
2024/01/20 02:08:04;;;;;;;33.38;15.75;;;;;-1.90;99529.00;;;;5059278;28;20067;-71
2024/01/20 02:10:31;;;;;;;31.75;15.75;;;;;-1.90;99516.00;;;;5059716;28;20091;-71
2024/01/20 02:12:59;;;;;;;28.55;14.07;;;;;-2.00;99521.00;;;;5059600;28;20120;-71
2024/01/20 02:15:27;;;;;;;26.85;14.38;;;;;-2.00;99513.00;;;;5059442;28;20669;-71
2024/01/20 02:17:55;;;;;;;29.52;14.02;;;;;-1.90;99516.00;;;;5059849;28;20502;-70
2024/01/20 02:20:23;;;;;;;29.23;15.52;;;;;-2.00;99522.00;;;;5059584;28;20040;-70
2024/01/20 02:22:50;;;;;;;31.13;15.70;;;;;-2.10;99536.00;;;;5058211;28;20040;-71
2024/01/20 02:25:17;;;;;;;33.38;14.98;;;;;-2.20;99538.00;;;;5059247;28;20127;-70
2024/01/20 02:27:44;;;;;;;39.30;16.15;;;;;-2.20;99541.00;;;;5058692;28;20056;-71
2024/01/20 02:30:11;;;;;;;32.85;15.60;;;;;-2.10;99544.00;;;;5061589;28;20419;-71
2024/01/20 02:32:37;;;;;;;26.92;14.10;;;;;-2.00;99553.00;;;;5076140;28;20056;-71
2024/01/20 02:35:05;;;;;;;41.03;15.20;;;;;-1.90;99551.00;;;;5057170;28;20105;-73
2024/01/20 02:37:33;;;;;;;28.08;14.82;;;;;-1.80;99563.00;;;;5078001;28;20052;-71
2024/01/20 02:39:59;;;;;;;35.53;14.32;;;;;-1.90;99566.00;;;;5078545;28;20068;-73
2024/01/20 02:42:26;;;;;;;28.73;13.50;;;;;-1.90;99571.00;;;;5073782;28;20076;-71
2024/01/20 02:44:52;;;;;;;22.70;11.88;;;;;-1.90;99563.00;;;;5067828;28;20083;-71
2024/01/20 02:47:19;;;;;;;20.38;10.63;;;;;-2.00;99564.00;;;;5070299;28;20045;-72
2024/01/20 02:49:46;;;;;;;20.73;11.65;;;;;-2.00;99562.00;;;;5070597;28;20045;-71
2024/01/20 02:52:13;;;;;;;24.08;11.40;;;;;-2.00;99555.00;;;;5042420;28;20115;-71
2024/01/20 02:54:39;;;;;;;22.23;11.45;;;;;-2.10;99561.00;;;;5056636;28;20490;-73
2024/01/20 02:57:06;;;;;;;21.13;11.13;;;;;-2.00;99570.00;;;;5057042;28;20053;-71
2024/01/20 02:59:33;;;;;;;23.00;10.77;;;;;-2.10;99564.00;;;;5038062;28;20429;-71
2024/01/20 03:02:02;;;;;;;23.13;11.32;;;;;-2.10;99568.00;;;;5037198;28;20049;-71
2024/01/20 03:04:29;;;;;;;22.65;11.07;;;;;-2.20;99570.00;;;;5053207;28;20048;-70
2024/01/20 03:06:56;;;;;;;24.20;12.18;;;;;-2.20;99579.00;;;;5054893;28;20143;-72
2024/01/20 03:09:22;;;;;;;23.10;11.93;;;;;-2.50;99571.00;;;;5037115;28;20049;-70
2024/01/20 03:11:49;;;;;;;24.77;13.75;;;;;-2.70;99569.00;;;;5054685;28;20049;-71
2024/01/20 03:14:16;;;;;;;23.92;12.88;;;;;-2.50;99569.00;;;;5054353;28;20048;-71
2024/01/20 03:16:43;;;;;;;19.67;11.48;;;;;-2.50;99567.00;;;;5054612;28;20561;-71
2024/01/20 03:19:09;;;;;;;19.27;10.90;;;;;-2.60;99569.00;;;;5054488;28;20048;-70
2024/01/20 03:21:36;;;;;;;20.23;11.57;;;;;-2.70;99554.00;;;;5053399;28;20073;-70
2024/01/20 03:24:02;;;;;;;21.02;11.02;;;;;-2.70;99546.00;;;;5053740;28;20041;-70
2024/01/20 03:26:29;;;;;;;19.33;10.40;;;;;-2.70;99544.00;;;;5053277;28;20077;-70
2024/01/20 03:28:56;;;;;;;17.67;10.18;;;;;-2.80;99561.00;;;;5054352;28;20048;-71
2024/01/20 03:31:22;;;;;;;23.02;11.18;;;;;-2.80;99568.00;;;;5054403;28;20075;-70
2024/01/20 03:33:49;;;;;;;22.30;12.07;;;;;-2.90;99557.00;;;;5052542;28;20452;-71
2024/01/20 03:36:16;;;;;;;25.35;13.05;;;;;-2.90;99561.00;;;;5054382;28;20124;-70
2024/01/20 03:38:42;;;;;;;26.67;13.75;;;;;-3.00;99573.00;;;;5054220;28;20536;-70
2024/01/20 03:41:09;;;;;;;27.85;14.07;;;;;-3.10;99571.00;;;;5053017;28;20398;-70
2024/01/20 03:43:35;;;;;;;31.30;15.25;;;;;-3.20;99582.00;;;;5052428;28;20041;-70
2024/01/20 03:46:02;;;;;;;30.85;15.23;;;;;-3.10;99586.00;;;;5054069;28;20110;-71
2024/01/20 03:48:29;;;;;;;30.60;14.20;;;;;-2.90;99591.00;;;;5054020;28;20521;-70
2024/01/20 03:50:56;;;;;;;27.02;12.02;;;;;-3.00;99590.00;;;;5036101;28;20045;-70
2024/01/20 03:53:22;;;;;;;22.92;12.40;;;;;-3.10;99594.00;;;;5036072;28;20052;-70
2024/01/20 03:55:49;;;;;;;23.70;12.27;;;;;-3.20;99590.00;;;;5052898;28;20055;-70
2024/01/20 03:58:16;;;;;;;24.45;12.73;;;;;-3.10;99588.00;;;;5053223;28;20441;-70
2024/01/20 04:00:43;;;;;;;21.27;11.90;;;;;-3.10;99591.00;;;;5052638;28;20045;-70
2024/01/20 04:03:10;;;;;;;24.30;11.50;;;;;-3.20;99584.00;;;;5053601;28;20448;-70
2024/01/20 04:05:39;;;;;;;27.23;12.70;;;;;-3.20;99581.00;;;;5035265;28;20084;-70
2024/01/20 04:08:06;;;;;;;23.85;11.93;;;;;-3.20;99594.00;;;;5052545;28;20045;-70
2024/01/20 04:10:32;;;;;;;31.00;12.10;;;;;-3.20;99600.00;;;;5051974;28;20498;-70
2024/01/20 04:12:59;;;;;;;21.50;10.55;;;;;-3.10;99606.00;;;;5035650;28;20129;-69
2024/01/20 04:15:25;;;;;;;24.65;12.55;;;;;-3.00;99607.00;;;;5051529;28;20053;-69
2024/01/20 04:17:52;;;;;;;26.30;12.93;;;;;-2.90;99612.00;;;;5053545;28;20051;-69
2024/01/20 04:20:19;;;;;;;25.83;13.75;;;;;-2.90;99615.00;;;;5052023;28;20048;-69
2024/01/20 04:22:46;;;;;;;26.80;13.70;;;;;-2.80;99611.00;;;;5053393;28;20406;-69
2024/01/20 04:25:13;;;;;;;26.25;13.48;;;;;-2.70;99607.00;;;;5052378;28;20382;-69
2024/01/20 04:27:40;;;;;;;24.15;11.77;;;;;-2.70;99613.00;;;;5051880;28;20044;-69
2024/01/20 04:30:09;;;;;;;25.75;13.20;;;;;-2.90;99608.00;;;;5053058;28;20051;-69
2024/01/20 04:32:36;;;;;;;33.47;15.10;;;;;-3.00;99608.00;;;;5053143;28;20044;-70
2024/01/20 04:35:04;;;;;;;31.27;16.20;;;;;-3.20;99608.00;;;;5052275;28;20444;-70
2024/01/20 04:37:30;;;;;;;36.15;15.80;;;;;-3.20;99605.00;;;;5053014;28;20072;-69
2024/01/20 04:39:59;;;;;;;36.92;15.68;;;;;-3.30;99613.00;;;;5035159;28;20049;-70
2024/01/20 04:42:26;;;;;;;30.50;14.80;;;;;-3.50;99600.00;;;;5051896;28;20083;-70
2024/01/20 04:44:52;;;;;;;29.60;13.75;;;;;-3.50;99600.00;;;;5051257;28;20045;-70
2024/01/20 04:47:19;;;;;;;30.83;14.73;;;;;-3.40;99598.00;;;;5053052;28;20045;-70
2024/01/20 04:49:46;;;;;;;30.17;14.30;;;;;-3.20;99604.00;;;;5052867;28;20115;-70
2024/01/20 04:52:12;;;;;;;28.98;14.18;;;;;-3.30;99610.00;;;;5035319;28;20049;-69
2024/01/20 04:54:39;;;;;;;29.17;14.10;;;;;-3.50;99602.00;;;;5052455;28;20107;-69
2024/01/20 04:57:05;;;;;;;31.75;15.40;;;;;-3.60;99600.00;;;;5051450;28;20504;-70
2024/01/20 04:59:32;;;;;;;39.28;17.80;;;;;-3.50;99613.00;;;;5051569;28;20045;-70
2024/01/20 05:01:58;;;;;;;29.55;14.80;;;;;-3.40;99612.00;;;;5052603;28;20044;-70
2024/01/20 05:04:25;;;;;;;25.20;12.48;;;;;-3.50;99618.00;;;;5051835;28;20036;-70
2024/01/20 05:06:52;;;;;;;28.75;13.00;;;;;-3.50;99614.00;;;;5051128;28;20065;-70
2024/01/20 05:09:18;;;;;;;24.13;13.23;;;;;-3.70;99615.00;;;;5051252;28;20045;-70
2024/01/20 05:11:45;;;;;;;25.85;12.63;;;;;-3.80;99621.00;;;;5052509;28;20072;-70
2024/01/20 05:14:12;;;;;;;22.98;12.57;;;;;-3.90;99618.00;;;;5050633;28;20139;-70
2024/01/20 05:16:38;;;;;;;25.48;12.68;;;;;-4.00;99622.00;;;;5052445;28;20138;-70
2024/01/20 05:19:05;;;;;;;27.23;12.90;;;;;-4.10;99619.00;;;;5051165;28;20049;-71
2024/01/20 05:21:32;;;;;;;26.70;12.82;;;;;-4.30;99606.00;;;;5052212;28;20040;-71
2024/01/20 05:23:58;;;;;;;30.95;12.68;;;;;-4.30;99618.00;;;;5049949;28;20047;-70
2024/01/20 05:26:25;;;;;;;26.38;12.20;;;;;-4.40;99618.00;;;;5052253;28;20045;-70
2024/01/20 05:28:51;;;;;;;29.27;14.73;;;;;-4.30;99618.00;;;;5034381;28;20059;-72
2024/01/20 05:31:18;;;;;;;33.28;13.68;;;;;-4.30;99622.00;;;;5052081;28;20116;-70
2024/01/20 05:33:45;;;;;;;30.65;13.80;;;;;-4.30;99619.00;;;;5051593;28;20128;-71
2024/01/20 05:36:12;;;;;;;25.42;12.98;;;;;-4.40;99624.00;;;;5050939;28;20124;-70
2024/01/20 05:38:39;;;;;;;24.48;13.13;;;;;-4.40;99632.00;;;;5052043;28;20067;-70
2024/01/20 05:41:08;;;;;;;28.10;13.30;;;;;-4.50;99632.00;;;;5050762;28;20072;-70
2024/01/20 05:43:37;;;;;;;28.15;12.93;;;;;-4.60;99634.00;;;;5050158;28;20068;-70
2024/01/20 05:46:06;;;;;;;27.42;13.93;;;;;-4.50;99639.00;;;;5052153;28;20045;-70
2024/01/20 05:48:34;;;;;;;33.10;14.32;;;;;-4.20;99647.00;;;;5051963;28;20048;-70
2024/01/20 05:51:01;;;;;;;27.48;13.98;;;;;-4.10;99649.00;;;;5051914;28;20037;-70
2024/01/20 05:53:28;;;;;;;29.65;14.18;;;;;-3.90;99656.00;;;;5050202;28;20040;-70
2024/01/20 05:55:54;;;;;;;31.48;14.90;;;;;-3.80;99660.00;;;;5050649;28;20049;-71
2024/01/20 05:58:21;;;;;;;30.38;14.90;;;;;-3.80;99659.00;;;;5051876;28;20106;-71
2024/01/20 06:00:48;;;;;;;26.40;13.32;;;;;-3.80;99666.00;;;;5052227;28;20045;-71
2024/01/20 06:03:15;;;;;;;27.67;13.63;;;;;-3.70;99657.00;;;;5051793;28;20048;-71
2024/01/20 06:05:41;;;;;;;28.88;13.65;;;;;-3.60;99678.00;;;;5051264;28;20045;-70
2024/01/20 06:08:08;;;;;;;30.23;13.10;;;;;-3.50;99676.00;;;;5051828;28;20513;-70
2024/01/20 06:10:35;;;;;;;28.83;14.57;;;;;-3.50;99684.00;;;;5051473;28;20053;-72
2024/01/20 06:13:01;;;;;;;32.63;14.63;;;;;-3.50;99678.00;;;;5051770;28;20037;-70
2024/01/20 06:15:28;;;;;;;29.35;13.52;;;;;-3.60;99675.00;;;;5050030;28;20128;-70
2024/01/20 06:17:54;;;;;;;25.77;12.50;;;;;-3.80;99676.00;;;;5050560;28;20053;-70
2024/01/20 06:20:21;;;;;;;27.52;14.23;;;;;-3.90;99688.00;;;;5051539;28;20084;-71
2024/01/20 06:22:48;;;;;;;30.52;13.32;;;;;-3.90;99681.00;;;;5051717;28;20127;-71
2024/01/20 06:25:14;;;;;;;28.35;13.38;;;;;-3.90;99693.00;;;;5049748;28;20040;-70
2024/01/20 06:27:41;;;;;;;30.40;13.30;;;;;-4.10;99685.00;;;;5051642;28;20122;-70
2024/01/20 06:30:08;;;;;;;28.60;13.88;;;;;-4.20;99689.00;;;;5050367;28;20048;-71
2024/01/20 06:32:35;;;;;;;27.75;13.65;;;;;-4.10;99703.00;;;;5051927;28;20056;-70
2024/01/20 06:35:02;;;;;;;27.73;12.98;;;;;-4.00;99699.00;;;;5052869;28;20048;-73
2024/01/20 06:37:29;;;;;;;25.13;13.45;;;;;-3.80;99712.00;;;;5054812;28;20056;-71
2024/01/20 06:39:55;;;;;;;28.98;14.40;;;;;-3.70;99709.00;;;;5055775;28;20131;-71
2024/01/20 06:42:22;;;;;;;28.13;14.70;;;;;-3.70;99706.00;;;;5055585;28;20045;-70
2024/01/20 06:44:48;;;;;;;25.67;13.27;;;;;-3.80;99721.00;;;;5054876;28;20040;-70
2024/01/20 06:47:15;;;;;;;25.27;12.32;;;;;-3.80;99714.00;;;;5054000;28;20532;-70
2024/01/20 06:49:42;;;;;;;23.15;11.18;;;;;-3.80;99715.00;;;;5054204;28;20053;-70
2024/01/20 06:52:09;;;;;;;20.52;10.80;;;;;-3.80;99715.00;;;;5055335;28;20506;-69
2024/01/20 06:54:38;;;;;;;22.23;12.00;;;;;-4.00;99715.00;;;;5054519;28;20041;-70
2024/01/20 06:57:05;;;;;;;23.83;12.25;;;;;-4.00;99718.00;;;;5055302;28;20045;-69
2024/01/20 06:59:32;;;;;;;27.42;12.48;;;;;-4.00;99726.00;;;;5054127;28;20123;-69
2024/01/20 07:01:58;;;;;;;29.85;13.65;;;;;-4.00;99731.00;;;;5055430;28;20442;-69
2024/01/20 07:04:25;;;;;;;27.55;12.05;;;;;-3.90;99740.00;;;;5054566;28;20076;-70
2024/01/20 07:06:52;;;;;;;23.35;12.00;;;;;-3.90;99732.00;;;;5055129;28;20036;-70
2024/01/20 07:09:18;;;;;;;26.83;13.15;;;;;-3.90;99743.00;;;;5055050;28;20045;-69
2024/01/20 07:11:45;;;;;;;24.48;12.10;;;;;-4.00;99734.00;;;;5054896;28;20056;-69
2024/01/20 07:14:12;;;;;;;27.83;13.52;;;;;-4.00;99721.00;;;;5053139;28;20040;-68
2024/01/20 07:16:38;;;;;;;25.33;12.30;;;;;-4.00;99732.00;;;;5053769;28;20055;-70
2024/01/20 07:19:05;;;;;;;29.75;14.40;;;;;-4.00;99719.00;;;;5055123;28;20090;-69
2024/01/20 07:21:31;;;;;;;27.17;13.60;;;;;-4.20;99722.00;;;;5053422;28;20049;-70
2024/01/20 07:23:58;;;;;;;24.25;12.30;;;;;-4.40;99738.00;;;;5054381;28;20128;-70
2024/01/20 07:26:25;;;;;;;29.70;14.27;;;;;-4.50;99737.00;;;;5054426;28;20077;-70
2024/01/20 07:28:51;;;;;;;25.15;12.50;;;;;-4.60;99747.00;;;;5053537;28;20092;-69
2024/01/20 07:31:18;;;;;;;25.50;12.68;;;;;-4.70;99748.00;;;;5053249;28;20502;-69
2024/01/20 07:33:46;;;;;;;28.13;12.25;;;;;-4.60;99749.00;;;;5055285;28;20048;-70
2024/01/20 07:36:13;;;;;;;24.23;12.32;;;;;-4.50;99748.00;;;;5057416;28;20110;-71
2024/01/20 07:38:40;;;;;;;25.23;12.13;;;;;-4.60;99747.00;;;;5053595;28;20053;-72
2024/01/20 07:41:07;;;;;;;23.63;11.85;;;;;-4.90;99739.00;;;;5054258;28;20525;-70
2024/01/20 07:43:34;;;;;;;24.17;12.15;;;;;-4.90;99736.00;;;;5053104;28;20048;-73
2024/01/20 07:46:00;;;;;;;26.15;13.27;;;;;-5.00;99739.00;;;;5052634;28;20048;-72
2024/01/20 07:48:27;;;;;;;26.90;12.65;;;;;-5.10;99745.00;;;;5053161;28;20127;-70
2024/01/20 07:50:54;;;;;;;25.65;12.65;;;;;-5.10;99752.00;;;;5053474;28;20051;-72
2024/01/20 07:53:21;;;;;;;28.70;13.52;;;;;-4.90;99752.00;;;;5054519;28;20044;-72
2024/01/20 07:55:48;;;;;;;25.73;11.90;;;;;-4.70;99754.00;;;;5053182;28;20044;-72
2024/01/20 07:58:15;;;;;;;25.45;12.55;;;;;-4.60;99755.00;;;;5056206;28;20510;-72
2024/01/20 08:00:42;;;;;;;29.85;13.35;;;;;-4.40;99761.00;;;;5055084;28;20041;-71
2024/01/20 08:03:09;;;;;;;26.20;12.43;;;;;-4.40;99758.00;;;;5053779;28;20509;-70
2024/01/20 08:05:35;;;;;;;22.02;12.38;;;;;-4.30;99751.00;;;;5053207;28;20099;-70
2024/01/20 08:08:03;;;;;;;26.00;13.57;;;;;-4.20;99763.00;;;;5054102;28;20182;-70
2024/01/20 08:10:29;;;;;;;27.30;13.32;;;;;-4.20;99774.00;;;;5036445;28;20072;-66
2024/01/20 08:12:56;;;;;;;26.50;13.50;;;;;-4.10;99777.00;;;;5053817;28;20094;-67
2024/01/20 08:15:23;;;;;;;33.40;15.07;;;;;-3.90;99778.00;;;;5051637;28;20413;-68
2024/01/20 08:17:50;;;;;;;30.65;13.95;;;;;-3.80;99783.00;;;;5053445;28;20041;-67
2024/01/20 08:20:16;;;;;;;29.77;14.48;;;;;-3.70;99778.00;;;;5053170;28;20470;-67
2024/01/20 08:22:43;;;;;;;32.78;15.35;;;;;-3.70;99781.00;;;;5053427;28;20421;-67
2024/01/20 08:25:10;;;;;;;32.20;14.82;;;;;-3.80;99787.00;;;;5052424;28;20049;-66
2024/01/20 08:27:37;;;;;;;32.10;15.25;;;;;-4.00;99782.00;;;;5052315;28;20091;-68
2024/01/20 08:30:04;;;;;;;30.13;14.43;;;;;-4.20;99788.00;;;;5051719;28;20486;-65
2024/01/20 08:32:31;;;;;;;31.75;15.35;;;;;-4.00;99799.00;;;;5035460;28;20048;-65
2024/01/20 08:34:58;;;;;;;32.83;14.43;;;;;-3.80;99792.00;;;;5052492;28;20045;-65
2024/01/20 08:37:24;;;;;;;31.73;14.95;;;;;-3.90;99796.00;;;;5053132;28;20044;-67
2024/01/20 08:39:51;;;;;;;30.83;15.13;;;;;-3.90;99801.00;;;;5052276;28;20095;-65
2024/01/20 08:42:17;;;;;;;30.50;16.35;;;;;-3.80;99795.00;;;;5053147;28;20404;-67
2024/01/20 08:44:44;;;;;;;28.73;14.18;;;;;-3.60;99800.00;;;;5052045;28;20056;-66
2024/01/20 08:47:11;;;;;;;26.60;14.18;;;;;-3.40;99805.00;;;;5052874;28;20048;-65
2024/01/20 08:49:37;;;;;;;28.77;14.68;;;;;-3.40;99808.00;;;;5052976;28;20073;-66
2024/01/20 08:52:05;;;;;;;34.13;15.82;;;;;-3.40;99821.00;;;;5034924;28;20140;-66
2024/01/20 08:54:31;;;;;;;29.85;15.27;;;;;-3.30;99802.00;;;;5050953;28;20037;-65
2024/01/20 08:56:58;;;;;;;33.80;15.52;;;;;-3.40;99805.00;;;;5034420;28;20502;-67
2024/01/20 08:59:24;;;;;;;36.45;16.38;;;;;-3.20;99804.00;;;;5050558;28;20049;-67
2024/01/20 09:01:51;;;;;;;30.60;14.98;;;;;-3.10;99802.00;;;;5052586;28;20052;-67
2024/01/20 09:04:18;;;;;;;33.75;14.93;;;;;-3.00;99805.00;;;;5051844;28;20127;-67
2024/01/20 09:06:44;;;;;;;30.73;15.25;;;;;-2.80;99810.00;;;;5052554;28;20076;-67
2024/01/20 09:09:11;;;;;;;37.00;16.60;;;;;-2.50;99820.00;;;;5052295;28;20045;-67
2024/01/20 09:11:38;;;;;;;32.38;16.85;;;;;-2.30;99822.00;;;;5052536;28;20052;-66
2024/01/20 09:14:05;;;;;;;52.58;24.95;;;;;-2.50;99827.00;;;;5051765;28;20037;-65
2024/01/20 09:16:31;;;;;;;35.72;17.50;;;;;-2.90;99827.00;;;;5051173;28;20129;-65
2024/01/20 09:18:58;;;;;;;34.38;17.48;;;;;-2.90;99825.00;;;;5051200;28;20525;-66
2024/01/20 09:21:25;;;;;;;42.40;19.45;;;;;-2.50;99837.00;;;;5052141;28;20041;-66
2024/01/20 09:23:51;;;;;;;36.72;18.23;;;;;-2.10;99847.00;;;;5051645;28;20413;-65
2024/01/20 09:26:18;;;;;;;34.65;17.38;;;;;-2.10;99835.00;;;;5050686;28;20037;-66
2024/01/20 09:28:45;;;;;;;34.83;17.38;;;;;-1.90;99834.00;;;;5051866;28;20047;-67
2024/01/20 09:31:12;;;;;;;33.15;17.30;;;;;-1.70;99833.00;;;;5050967;28;20494;-66
2024/01/20 09:33:38;;;;;;;35.60;17.83;;;;;-1.50;99833.00;;;;5051725;28;20045;-67
2024/01/20 09:36:05;;;;;;;34.88;18.05;;;;;-1.30;99834.00;;;;5050789;28;20041;-65
2024/01/20 09:38:32;;;;;;;31.17;16.58;;;;;-1.60;99824.00;;;;5052276;28;20045;-67
2024/01/20 09:40:59;;;;;;;35.05;17.10;;;;;-1.70;99828.00;;;;5051981;28;20120;-66
2024/01/20 09:43:25;;;;;;;35.35;17.77;;;;;-1.60;99832.00;;;;5053017;28;20044;-67
2024/01/20 09:45:52;;;;;;;33.00;16.85;;;;;-1.60;99833.00;;;;5034095;28;20500;-65
2024/01/20 09:48:19;;;;;;;35.47;17.27;;;;;-1.30;99837.00;;;;5051925;28;20040;-64
2024/01/20 09:50:47;;;;;;;37.60;19.13;;;;;-1.30;99831.00;;;;5050675;28;20041;-64
2024/01/20 09:53:16;;;;;;;35.15;18.70;;;;;-1.40;99827.00;;;;5052154;28;20484;-65
2024/01/20 09:55:44;;;;;;;40.85;18.98;;;;;-1.70;99828.00;;;;5051663;28;20049;-65
2024/01/20 09:58:15;;;;;;;36.15;18.38;;;;;-1.80;99832.00;;;;5059316;28;20041;-64
2024/01/20 10:00:43;;;;;;;40.70;20.55;;;;;-1.70;99833.00;;;;5053365;28;20129;-65
2024/01/20 10:03:11;;;;;;;50.17;23.73;;;;;-1.40;99831.00;;;;5052978;28;20506;-66
2024/01/20 10:05:38;;;;;;;42.97;19.83;;;;;-1.30;99842.00;;;;5052363;28;20111;-67
2024/01/20 10:08:05;;;;;;;48.65;22.88;;;;;-1.10;99839.00;;;;5055092;28;20559;-67
2024/01/20 10:10:33;;;;;;;38.33;19.15;;;;;-1.40;99837.00;;;;5039841;28;20057;-67
2024/01/20 10:13:00;;;;;;;41.42;21.48;;;;;-1.70;99837.00;;;;5064494;28;20624;-65
2024/01/20 10:15:30;;;;;;;40.50;21.88;;;;;-1.70;99836.00;;;;5058316;28;20408;-66
2024/01/20 10:18:06;;;;;;;38.50;20.83;;;;;-1.50;99838.00;;;;5056930;28;20037;-68
2024/01/20 10:20:35;;;;;;;57.20;32.75;;;;;-1.50;99839.00;;;;5055903;28;20048;-66
2024/01/20 10:23:05;;;;;;;46.53;23.42;;;;;-1.40;99841.00;;;;5054804;28;20044;-65
2024/01/20 10:25:38;;;;;;;35.17;19.58;;;;;-1.30;99836.00;;;;5054137;28;20055;-65
2024/01/20 10:28:07;;;;;;;35.58;18.90;;;;;-1.30;99835.00;;;;5056140;28;20407;-66
2024/01/20 10:30:37;;;;;;;37.30;18.88;;;;;-1.50;99821.00;;;;5055650;28;20163;-65
2024/01/20 10:33:04;;;;;;;31.25;17.45;;;;;-1.50;99821.00;;;;5055901;28;20120;-67
2024/01/20 10:35:37;;;;;;;31.65;16.23;;;;;-1.40;99823.00;;;;5054706;28;20048;-66
2024/01/20 10:38:10;;;;;;;33.58;16.23;;;;;-1.30;99817.00;;;;5056396;28;20064;-67
2024/01/20 10:40:42;;;;;;;55.13;26.95;;;;;-1.20;99818.00;;;;5055725;28;20099;-65
2024/01/20 10:43:14;;;;;;;35.17;18.77;;;;;-1.30;99813.00;;;;5056055;28;20072;-66
2024/01/20 10:45:54;;;;;;;34.42;17.55;;;;;-1.00;99806.00;;;;5055843;28;20052;-66
2024/01/20 10:48:25;;;;;;;33.70;17.88;;;;;-1.00;99811.00;;;;5057321;28;20068;-68
2024/01/20 10:50:58;;;;;;;30.63;17.27;;;;;-0.80;99823.00;;;;5055808;28;20077;-66
2024/01/20 10:53:26;;;;;;;31.95;17.42;;;;;-0.70;99805.00;;;;5058598;28;20102;-67
2024/01/20 10:55:54;;;;;;;30.35;16.15;;;;;-0.60;99808.00;;;;5057263;28;20077;-66
2024/01/20 10:58:32;;;;;;;30.52;17.33;;;;;-0.60;99806.00;;;;5058669;28;20037;-68
2024/01/20 11:00:59;;;;;;;27.02;15.15;;;;;-0.70;99797.00;;;;5061873;28;20124;-68
2024/01/20 11:03:26;;;;;;;30.48;16.08;;;;;-0.60;99799.00;;;;5068010;28;20071;-65
2024/01/20 11:05:53;;;;;;;38.55;18.00;;;;;-0.60;99799.00;;;;5061099;28;20560;-65
2024/01/20 11:08:25;;;;;;;29.80;17.58;;;;;-0.50;99806.00;;;;5059192;28;20056;-65
2024/01/20 11:10:53;;;;;;;38.65;19.52;;;;;-0.30;99799.00;;;;5061263;28;20552;-68
2024/01/20 11:13:25;;;;;;;34.92;20.08;;;;;-0.10;99807.00;;;;5060848;28;20155;-66
2024/01/20 11:15:53;;;;;;;36.30;18.70;;;;;0.10;99802.00;;;;5061446;28;20049;-64
2024/01/20 11:18:21;;;;;;;31.70;18.10;;;;;0.20;99800.00;;;;5056871;28;20073;-66
2024/01/20 11:21:02;;;;;;;32.13;17.42;;;;;0.30;99809.00;;;;5072181;28;20075;-64
2024/01/20 11:23:30;;;;;;;34.42;18.88;;;;;0.30;99813.00;;;;5082582;28;20040;-65
2024/01/20 11:25:58;;;;;;;35.97;18.08;;;;;0.40;99810.00;;;;5086412;28;20041;-64
2024/01/20 11:28:31;;;;;;;31.58;17.85;;;;;0.50;99803.00;;;;5092573;28;20060;-65
2024/01/20 11:30:59;;;;;;;32.40;16.90;;;;;0.70;99807.00;;;;5090036;28;20049;-66
2024/01/20 11:33:25;;;;;;;29.45;15.90;;;;;0.80;99804.00;;;;5090874;28;20052;-67
2024/01/20 11:35:53;;;;;;;30.00;17.10;;;;;0.90;99798.00;;;;5092603;28;20045;-68
2024/01/20 11:38:20;;;;;;;30.88;16.73;;;;;1.00;99801.00;;;;5094490;28;20083;-68
2024/01/20 11:40:56;;;;;;;29.35;16.42;;;;;1.10;99797.00;;;;5097118;28;20049;-68
2024/01/20 11:43:23;;;;;;;27.80;15.38;;;;;1.00;99795.00;;;;5092941;28;20112;-65
2024/01/20 11:45:50;;;;;;;23.90;13.65;;;;;1.10;99801.00;;;;5090801;28;20135;-66
2024/01/20 11:48:18;;;;;;;31.83;17.33;;;;;1.20;99796.00;;;;5088845;28;20036;-65
2024/01/20 11:50:45;;;;;;;25.92;14.13;;;;;1.30;99798.00;;;;5093575;28;20048;-65
2024/01/20 11:53:11;;;;;;;27.42;16.77;;;;;1.30;99799.00;;;;5094097;28;20056;-65
2024/01/20 11:55:38;;;;;;;30.98;18.17;;;;;1.30;99799.00;;;;5084804;28;20059;-65
2024/01/20 11:58:04;;;;;;;33.95;19.60;;;;;1.40;99802.00;;;;5076116;28;20064;-65